createdAt,value
2018-02-14T00:00:22.683Z,6.90
2018-02-14T00:02:49.315Z,6.22
2018-02-14T00:05:15.916Z,6.10
2018-02-14T00:07:42.659Z,6.95
2018-02-14T00:10:10.013Z,9.70
2018-02-14T00:12:36.671Z,7.80
2018-02-14T00:15:03.289Z,6.78
2018-02-14T00:17:30.646Z,6.20
2018-02-14T00:19:57.491Z,7.35
2018-02-14T00:22:24.230Z,5.15
2018-02-14T00:24:50.870Z,7.45
2018-02-14T00:27:17.609Z,7.05
2018-02-14T00:29:44.355Z,7.55
2018-02-14T00:32:10.903Z,7.85
2018-02-14T00:34:40.495Z,5.78
2018-02-14T00:37:07.136Z,5.18
2018-02-14T00:39:38.178Z,8.25
2018-02-14T00:42:04.816Z,9.27
2018-02-14T00:44:31.868Z,7.25
2018-02-14T00:46:59.424Z,7.93
2018-02-14T00:49:26.882Z,8.63
2018-02-14T00:51:53.622Z,5.10
2018-02-14T00:54:20.368Z,6.70
2018-02-14T00:56:47.947Z,6.47
2018-02-14T00:59:15.597Z,4.45
2018-02-14T01:01:42.913Z,6.00
2018-02-14T01:04:13.684Z,5.97
2018-02-14T01:06:40.419Z,6.90
2018-02-14T01:09:07.978Z,4.40
2018-02-14T01:11:34.722Z,5.32
2018-02-14T01:14:02.178Z,6.22
2018-02-14T01:16:33.015Z,7.65
2018-02-14T01:22:00.290Z,6.95
2018-02-14T01:24:27.032Z,5.20
2018-02-14T01:26:53.569Z,4.40
2018-02-14T01:29:20.310Z,5.80
2018-02-14T01:31:48.483Z,4.18
2018-02-14T01:34:15.122Z,3.58
2018-02-14T01:36:41.654Z,5.57
2018-02-14T01:39:09.117Z,3.15
2018-02-14T01:41:35.760Z,4.93
2018-02-14T01:44:02.496Z,2.72
2018-02-14T01:46:29.240Z,5.43
2018-02-14T01:48:55.978Z,3.35
2018-02-14T01:51:22.461Z,4.07
2018-02-14T01:53:49.730Z,4.07
2018-02-14T01:56:16.304Z,2.83
2018-02-14T01:58:43.659Z,4.62
2018-02-14T02:01:10.401Z,4.87
2018-02-14T02:03:36.939Z,3.92
2018-02-14T02:06:04.297Z,2.62
2018-02-14T02:08:30.917Z,2.75
2018-02-14T02:10:57.562Z,2.83
2018-02-14T02:13:24.256Z,3.45
2018-02-14T02:15:50.950Z,6.70
2018-02-14T02:18:18.409Z,4.62
2018-02-14T02:20:45.781Z,5.18
2018-02-14T02:23:12.402Z,3.00
2018-02-14T02:25:39.251Z,3.25
2018-02-14T02:28:05.861Z,4.93
2018-02-14T02:30:32.670Z,3.30
2018-02-14T02:32:59.370Z,3.35
2018-02-14T02:35:29.592Z,3.17
2018-02-14T02:37:56.945Z,3.65
2018-02-14T02:40:30.447Z,2.40
2018-02-14T02:42:57.905Z,2.65
2018-02-14T02:45:24.466Z,4.43
2018-02-14T02:47:51.899Z,1.98
2018-02-14T02:50:19.256Z,3.80
2018-02-14T02:52:45.865Z,2.40
2018-02-14T02:55:12.458Z,7.65
2018-02-14T02:57:39.067Z,2.20
2018-02-14T03:00:05.717Z,2.20
2018-02-14T03:02:32.449Z,1.85
2018-02-14T03:04:59.157Z,2.25
2018-02-14T03:07:25.730Z,3.20
2018-02-14T03:09:52.471Z,2.70
2018-02-14T03:12:19.801Z,2.25
2018-02-14T03:14:46.389Z,1.73
2018-02-14T03:17:12.960Z,3.50
2018-02-14T03:19:39.636Z,2.58
2018-02-14T03:22:06.343Z,2.20
2018-02-14T03:24:32.903Z,2.12
2018-02-14T03:27:00.226Z,2.50
2018-02-14T03:29:26.800Z,1.75
2018-02-14T03:31:54.104Z,2.92
2018-02-14T03:34:25.235Z,1.90
2018-02-14T03:36:55.671Z,1.65
2018-02-14T03:39:22.203Z,2.05
2018-02-14T03:41:48.794Z,2.37
2018-02-14T03:44:15.444Z,2.08
2018-02-14T03:46:43.505Z,2.20
2018-02-14T03:49:10.053Z,2.45
2018-02-14T03:51:36.705Z,2.05
2018-02-14T03:54:03.995Z,4.75
2018-02-14T03:56:30.604Z,2.80
2018-02-14T03:58:57.917Z,4.70
2018-02-14T04:01:28.411Z,2.33
2018-02-14T04:03:54.951Z,2.97
2018-02-14T04:06:21.564Z,2.55
2018-02-14T04:08:48.884Z,2.25
2018-02-14T04:11:15.492Z,2.65
2018-02-14T04:13:42.172Z,5.05
2018-02-14T04:16:09.491Z,3.70
2018-02-14T04:18:36.079Z,2.33
2018-02-14T04:21:02.748Z,2.00
2018-02-14T04:23:33.307Z,1.87
2018-02-14T04:25:59.976Z,1.67
2018-02-14T04:28:26.613Z,2.10
2018-02-14T04:30:53.991Z,1.83
2018-02-14T04:33:20.507Z,4.25
2018-02-14T04:35:50.751Z,2.10
2018-02-14T04:38:17.442Z,2.50
2018-02-14T04:40:44.020Z,1.80
2018-02-14T04:43:11.301Z,2.30
2018-02-14T04:45:37.837Z,5.30
2018-02-14T04:48:04.423Z,2.78
2018-02-14T04:50:31.073Z,2.80
2018-02-14T04:52:57.917Z,2.75
2018-02-14T04:55:24.479Z,2.80
2018-02-14T04:57:51.821Z,3.22
2018-02-14T05:00:19.136Z,2.28
2018-02-14T05:02:45.751Z,2.30
2018-02-14T05:05:12.545Z,2.60
2018-02-14T05:07:39.136Z,2.60
2018-02-14T05:10:05.752Z,2.78
2018-02-14T05:12:32.368Z,3.30
2018-02-14T05:14:59.668Z,4.97
2018-02-14T05:17:26.314Z,3.65
2018-02-14T05:19:52.923Z,3.83
2018-02-14T05:22:19.484Z,5.18
2018-02-14T05:24:46.134Z,4.18
2018-02-14T05:27:12.688Z,3.65
2018-02-14T05:29:39.232Z,5.07
2018-02-14T05:32:06.682Z,4.35
2018-02-14T05:34:36.338Z,4.32
2018-02-14T05:37:04.044Z,5.37
2018-02-14T05:39:30.610Z,5.30
2018-02-14T05:41:57.175Z,5.57
2018-02-14T05:44:23.735Z,7.22
2018-02-14T05:46:50.329Z,4.45
2018-02-14T05:49:18.184Z,5.82
2018-02-14T05:51:44.748Z,6.25
2018-02-14T05:54:11.348Z,6.45
2018-02-14T05:56:37.867Z,4.05
2018-02-14T05:59:04.533Z,6.40
2018-02-14T06:01:31.991Z,6.80
2018-02-14T06:04:02.387Z,9.60
2018-02-14T06:06:28.984Z,8.23
2018-02-14T06:08:55.814Z,7.30
2018-02-14T06:11:23.134Z,5.57
2018-02-14T06:13:49.768Z,4.32
2018-02-14T06:16:17.151Z,7.93
2018-02-14T06:18:43.787Z,4.53
2018-02-14T06:21:10.418Z,8.15
2018-02-14T06:23:37.780Z,3.65
2018-02-14T06:26:05.075Z,3.25
2018-02-14T06:28:31.666Z,3.50
2018-02-14T06:30:58.279Z,3.87
2018-02-14T06:33:24.907Z,5.80
2018-02-14T06:35:51.483Z,4.97
2018-02-14T06:38:18.041Z,3.65
2018-02-14T06:40:45.375Z,4.12
2018-02-14T06:46:10.314Z,4.47
2018-02-14T06:48:37.558Z,5.37
2018-02-14T06:51:04.202Z,6.12
2018-02-14T06:53:30.772Z,6.47
2018-02-14T06:55:57.930Z,6.00
2018-02-14T06:58:24.376Z,4.55
2018-02-14T07:00:50.813Z,5.82
2018-02-14T07:05:50.786Z,9.20
2018-02-14T07:08:17.258Z,7.12
2018-02-14T07:10:43.739Z,5.47
2018-02-14T07:13:10.169Z,7.68
2018-02-14T07:15:36.641Z,5.12
2018-02-14T07:18:03.852Z,6.32
2018-02-14T07:20:30.315Z,4.75
2018-02-14T07:22:56.802Z,6.32
2018-02-14T07:25:23.240Z,4.90
2018-02-14T07:27:49.722Z,8.35
2018-02-14T07:30:16.157Z,7.18
2018-02-14T07:32:46.033Z,5.37
2018-02-14T07:35:12.568Z,4.47
2018-02-14T07:37:39.077Z,8.65
2018-02-14T07:40:09.255Z,9.93
2018-02-14T07:42:35.700Z,10.32
2018-02-14T07:45:02.306Z,10.75
2018-02-14T07:47:28.724Z,7.28
2018-02-14T07:49:55.164Z,5.70
2018-02-14T07:52:21.654Z,6.75
2018-02-14T07:54:48.184Z,11.73
2018-02-14T07:57:14.697Z,9.10
2018-02-14T07:59:41.141Z,8.73
2018-02-14T08:02:07.575Z,7.60
2018-02-14T08:04:34.048Z,10.88
2018-02-14T08:07:01.252Z,7.75
2018-02-14T08:09:27.720Z,6.78
2018-02-14T08:11:54.188Z,9.57
2018-02-14T08:14:20.630Z,11.85
2018-02-14T08:16:47.084Z,10.02
2018-02-14T08:19:13.552Z,8.20
2018-02-14T08:21:40.824Z,9.10
2018-02-14T08:24:07.993Z,7.85
2018-02-14T08:26:34.497Z,13.40
2018-02-14T08:29:01.677Z,14.18
2018-02-14T08:31:28.154Z,13.32
2018-02-14T08:33:54.743Z,10.25
2018-02-14T08:36:22.043Z,14.38
2018-02-14T08:38:49.815Z,11.18
2018-02-14T08:41:16.256Z,9.20
2018-02-14T08:43:43.187Z,7.28
2018-02-14T08:46:09.714Z,7.12
2018-02-14T08:48:36.263Z,5.37
2018-02-14T08:51:02.721Z,8.10
2018-02-14T08:53:33.034Z,8.47
2018-02-14T08:55:59.604Z,6.57
2018-02-14T08:58:26.082Z,7.00
2018-02-14T09:00:52.589Z,7.47
2018-02-14T09:03:19.170Z,7.43
2018-02-14T09:05:45.612Z,8.47
2018-02-14T09:08:12.069Z,7.03
2018-02-14T09:10:38.546Z,7.50
2018-02-14T09:13:04.981Z,8.20
2018-02-14T09:15:31.461Z,7.20
2018-02-14T09:17:57.882Z,8.20
2018-02-14T09:20:24.332Z,7.00
2018-02-14T09:22:50.744Z,5.20
2018-02-14T09:25:17.184Z,5.60
2018-02-14T09:27:43.642Z,7.73
2018-02-14T09:30:11.174Z,6.07
2018-02-14T09:32:37.709Z,7.30
2018-02-14T09:35:04.156Z,7.33
2018-02-14T09:37:30.621Z,7.30
2018-02-14T09:39:57.260Z,6.10
2018-02-14T09:42:23.688Z,8.07
2018-02-14T09:44:50.189Z,7.57
2018-02-14T09:47:16.672Z,7.90
2018-02-14T09:49:43.198Z,7.23
2018-02-14T09:52:10.330Z,7.00
2018-02-14T09:54:36.762Z,8.47
2018-02-14T09:57:03.245Z,6.50
2018-02-14T09:59:29.680Z,7.10
2018-02-14T10:02:00.171Z,8.30
2018-02-14T10:04:27.358Z,6.57
2018-02-14T10:06:54.130Z,7.80
2018-02-14T10:09:20.589Z,6.40
2018-02-14T10:11:47.033Z,6.30
2018-02-14T10:14:13.513Z,7.10
2018-02-14T10:16:39.968Z,8.50
2018-02-14T10:19:06.506Z,7.00
2018-02-14T10:21:36.557Z,9.20
2018-02-14T10:24:03.740Z,7.87
2018-02-14T10:26:30.206Z,8.40
2018-02-14T10:28:56.720Z,6.90
2018-02-14T10:31:23.227Z,8.43
2018-02-14T10:33:50.412Z,7.47
2018-02-14T10:36:16.888Z,7.00
2018-02-14T10:38:44.123Z,6.67
2018-02-14T10:41:10.641Z,6.73
2018-02-14T10:43:37.136Z,8.00
2018-02-14T10:46:04.322Z,6.33
2018-02-14T10:48:34.868Z,7.23
2018-02-14T10:51:01.296Z,7.47
2018-02-14T10:53:27.756Z,7.90
2018-02-14T10:55:54.173Z,7.00
2018-02-14T10:58:20.930Z,7.67
2018-02-14T11:00:53.604Z,5.90
2018-02-14T11:03:30.935Z,6.90
2018-02-14T11:06:04.492Z,7.43
2018-02-14T11:08:31.233Z,7.90
2018-02-14T11:10:57.789Z,6.13
2018-02-14T11:13:25.031Z,6.63
2018-02-14T11:15:51.498Z,6.93
2018-02-14T11:18:18.678Z,8.30
2018-02-14T11:20:45.146Z,6.50
2018-02-14T11:23:11.683Z,7.60
2018-02-14T11:25:38.096Z,7.67
2018-02-14T11:28:04.659Z,7.60
2018-02-14T11:30:31.291Z,6.97
2018-02-14T11:32:58.033Z,6.60
2018-02-14T11:35:24.469Z,6.67
2018-02-14T11:37:50.924Z,6.53
2018-02-14T11:40:17.407Z,6.77
2018-02-14T11:42:43.866Z,6.53
2018-02-14T11:45:10.428Z,6.57
2018-02-14T11:47:36.848Z,6.63
2018-02-14T11:50:03.301Z,6.80
2018-02-14T11:52:30.491Z,6.80
2018-02-14T11:54:56.934Z,6.63
2018-02-14T11:57:23.385Z,6.50
2018-02-14T11:59:49.788Z,6.40
2018-02-14T12:02:16.938Z,6.83
2018-02-14T12:04:43.400Z,6.70
2018-02-14T12:07:10.303Z,7.07
2018-02-14T12:09:36.788Z,7.03
2018-02-14T12:12:03.248Z,6.70
2018-02-14T12:14:29.712Z,6.67
2018-02-14T12:16:56.886Z,6.63
2018-02-14T12:19:23.302Z,6.53
2018-02-14T12:21:49.997Z,7.27
2018-02-14T12:24:16.417Z,7.30
2018-02-14T12:26:42.856Z,7.07
2018-02-14T12:29:09.405Z,6.90
2018-02-14T12:31:36.051Z,6.70
2018-02-14T12:34:02.881Z,6.67
2018-02-14T12:36:29.349Z,7.30
2018-02-14T12:38:56.070Z,6.77
2018-02-14T12:41:22.574Z,7.07
2018-02-14T12:43:49.037Z,7.03
2018-02-14T12:46:15.460Z,6.80
2018-02-14T12:48:41.899Z,7.20
2018-02-14T12:51:08.316Z,6.30
2018-02-14T12:53:34.763Z,7.10
2018-02-14T12:56:01.200Z,7.00
2018-02-14T12:58:27.656Z,7.20
2018-02-14T13:00:54.845Z,6.87
2018-02-14T13:03:21.252Z,6.93
2018-02-14T13:05:52.269Z,6.70
2018-02-14T13:08:18.681Z,5.80
2018-02-14T13:10:45.120Z,6.90
2018-02-14T13:13:11.574Z,6.73
2018-02-14T13:15:38.014Z,6.50
2018-02-14T13:18:04.464Z,5.87
2018-02-14T13:20:30.928Z,7.03
2018-02-14T13:22:57.375Z,6.73
2018-02-14T13:25:23.786Z,6.40
2018-02-14T13:27:50.209Z,5.70
2018-02-14T13:30:17.421Z,6.37
2018-02-14T13:32:43.840Z,5.63
2018-02-14T13:35:10.402Z,5.87
2018-02-14T13:37:36.836Z,6.17
2018-02-14T13:40:03.278Z,5.77
2018-02-14T13:42:29.668Z,6.63
2018-02-14T13:44:56.094Z,6.07
2018-02-14T13:47:22.571Z,5.43
2018-02-14T13:49:49.020Z,5.93
2018-02-14T13:52:15.508Z,5.63
2018-02-14T13:54:41.981Z,6.43
2018-02-14T13:57:08.565Z,5.67
2018-02-14T13:59:34.976Z,6.33
2018-02-14T14:02:02.177Z,5.07
2018-02-14T14:04:28.649Z,6.33
2018-02-14T14:06:55.819Z,6.83
2018-02-14T14:09:23.001Z,6.90
2018-02-14T14:11:49.424Z,6.00
2018-02-14T14:14:15.865Z,6.40
2018-02-14T14:16:42.292Z,6.60
2018-02-14T14:19:08.748Z,5.93
2018-02-14T14:21:35.205Z,6.13
2018-02-14T14:24:01.634Z,6.67
2018-02-14T14:26:28.078Z,6.63
2018-02-14T14:28:54.502Z,6.27
2018-02-14T14:31:20.985Z,7.60
2018-02-14T14:33:48.190Z,5.73
2018-02-14T14:36:14.664Z,6.93
2018-02-14T14:38:45.263Z,5.50
2018-02-14T14:41:11.824Z,5.70
2018-02-14T14:43:39.049Z,6.80
2018-02-14T14:46:05.440Z,6.73
2018-02-14T14:48:35.799Z,6.73
2018-02-14T14:51:02.224Z,7.10
2018-02-14T14:53:28.663Z,7.33
2018-02-14T14:55:55.124Z,6.63
2018-02-14T14:58:21.830Z,6.20
2018-02-14T15:00:51.588Z,6.63
2018-02-14T15:03:18.053Z,5.97
2018-02-14T15:05:44.542Z,5.83
2018-02-14T15:08:16.392Z,6.70
2018-02-14T15:10:42.851Z,8.30
2018-02-14T15:13:09.284Z,6.70
2018-02-14T15:15:37.185Z,6.60
2018-02-14T15:18:03.635Z,7.90
2018-02-14T15:20:30.071Z,6.60
2018-02-14T15:22:56.532Z,7.93
2018-02-14T15:25:22.990Z,6.77
2018-02-14T15:27:49.444Z,7.27
2018-02-14T15:30:16.608Z,8.20
2018-02-14T15:32:43.812Z,7.50
2018-02-14T15:35:10.294Z,7.10
2018-02-14T15:37:40.764Z,6.23
2018-02-14T15:40:07.972Z,7.20
2018-02-14T15:42:35.155Z,6.37
2018-02-14T15:45:01.584Z,6.40
2018-02-14T15:47:28.040Z,7.60
2018-02-14T15:49:54.488Z,7.57
2018-02-14T15:52:20.931Z,9.20
2018-02-14T15:54:47.338Z,21.83
2018-02-14T15:57:13.781Z,11.37
2018-02-14T15:59:45.183Z,10.73
2018-02-14T16:02:11.622Z,11.50
2018-02-14T16:04:38.047Z,10.30
2018-02-14T16:07:13.032Z,10.33
2018-02-14T16:09:39.535Z,9.27
2018-02-14T16:12:06.076Z,8.40
2018-02-14T16:14:54.244Z,8.87
2018-02-14T16:17:24.480Z,6.63
2018-02-14T16:19:50.904Z,9.32
2018-02-14T16:22:17.361Z,9.23
2018-02-14T16:24:43.895Z,6.97
2018-02-14T16:27:11.200Z,8.03
2018-02-14T16:29:37.775Z,7.53
2018-02-14T16:32:04.412Z,8.73
2018-02-14T16:40:36.013Z,11.18
2018-02-14T16:43:02.498Z,7.43
2018-02-14T16:45:29.061Z,8.77
2018-02-14T16:47:56.326Z,9.45
2018-02-14T16:50:22.805Z,9.73
2018-02-14T16:52:50.010Z,10.10
2018-02-14T16:55:16.722Z,9.35
2018-02-14T16:57:43.270Z,11.97
2018-02-14T17:00:09.708Z,13.10
2018-02-14T17:02:36.191Z,12.53
2018-02-14T17:05:02.632Z,7.82
2018-02-14T17:07:29.100Z,16.20
2018-02-14T17:09:55.581Z,16.52
2018-02-14T17:12:22.790Z,12.30
2018-02-14T17:14:49.812Z,11.18
2018-02-14T17:17:16.309Z,12.65
2018-02-14T17:19:42.766Z,12.82
2018-02-14T17:22:09.960Z,12.35
2018-02-14T17:24:36.437Z,10.93
2018-02-14T17:30:27.678Z,11.25
2018-02-14T17:54:00.344Z,13.10
2018-02-14T17:56:27.528Z,14.32
2018-02-14T17:58:53.947Z,16.70
2018-02-14T18:01:20.395Z,16.30
2018-02-14T18:03:46.790Z,15.90
2018-02-14T18:06:21.094Z,17.42
2018-02-14T18:08:47.505Z,16.73
2018-02-14T18:11:13.973Z,16.98
2018-02-14T18:13:40.416Z,14.90
2018-02-14T18:16:11.626Z,16.10
2018-02-14T18:18:38.078Z,17.02
2018-02-14T18:21:04.566Z,15.95
2018-02-14T18:23:31.045Z,17.67
2018-02-14T18:25:57.575Z,17.20
2018-02-14T18:28:23.998Z,17.85
2018-02-14T18:30:50.506Z,18.17
2018-02-14T18:33:16.936Z,16.08
2018-02-14T18:35:43.409Z,20.62
2018-02-14T18:38:10.589Z,17.67
2018-02-14T18:40:37.784Z,19.12
2018-02-14T18:43:04.217Z,18.52
2018-02-14T18:45:34.532Z,15.00
2018-02-14T18:48:00.945Z,12.40
2018-02-14T18:50:28.124Z,17.17
2018-02-14T18:52:54.547Z,16.62
2018-02-14T18:55:20.961Z,15.57
2018-02-14T18:57:48.117Z,14.15
2018-02-14T19:00:15.293Z,16.65
2018-02-14T19:02:41.760Z,15.38
2018-02-14T19:05:08.196Z,18.65
2018-02-14T19:07:34.602Z,17.30
2018-02-14T19:10:01.064Z,20.98
2018-02-14T19:12:27.498Z,17.27
2018-02-14T19:14:53.972Z,18.70
2018-02-14T19:17:20.424Z,18.25
2018-02-14T19:19:46.860Z,18.40
2018-02-14T19:22:13.452Z,18.80
2018-02-14T19:24:39.876Z,16.25
2018-02-14T19:27:06.300Z,15.30
2018-02-14T19:29:32.720Z,16.17
2018-02-14T19:31:59.129Z,13.68
2018-02-14T19:34:25.534Z,15.82
2018-02-14T19:36:51.957Z,17.48
2018-02-14T19:39:18.382Z,17.05
2018-02-14T19:41:46.284Z,14.32
2018-02-14T19:44:12.715Z,14.98
2018-02-14T19:46:39.897Z,14.98
2018-02-14T19:49:06.317Z,15.10
2018-02-14T19:51:32.724Z,15.00
2018-02-14T19:53:59.871Z,16.33
2018-02-14T19:56:27.050Z,15.13
2018-02-14T19:58:53.512Z,15.70
2018-02-14T20:01:19.970Z,13.77
2018-02-14T20:03:50.277Z,15.23
2018-02-14T20:06:16.715Z,15.35
2018-02-14T20:08:43.156Z,14.30
2018-02-14T20:11:09.611Z,14.48
2018-02-14T20:13:36.773Z,14.98
2018-02-14T20:16:03.961Z,14.38
2018-02-14T20:18:30.368Z,14.60
2018-02-14T20:20:56.842Z,14.60
2018-02-14T20:23:24.765Z,16.27
2018-02-14T20:25:51.942Z,13.90
2018-02-14T20:28:18.388Z,15.35
2018-02-14T20:30:44.828Z,14.13
2018-02-14T20:33:11.252Z,14.50
2018-02-14T20:35:37.696Z,15.43
2018-02-14T20:38:04.098Z,13.38
2018-02-14T20:40:31.291Z,13.65
2018-02-14T20:42:57.685Z,15.32
2018-02-14T20:45:24.114Z,17.17
2018-02-14T20:47:50.542Z,16.35
2018-02-14T20:50:17.736Z,13.00
2018-02-14T20:52:44.487Z,14.85
2018-02-14T20:55:10.939Z,14.70
2018-02-14T20:57:37.368Z,14.85
2018-02-14T21:00:03.832Z,14.70
2018-02-14T21:02:30.999Z,14.30
2018-02-14T21:04:57.396Z,16.20
2018-02-14T21:07:27.781Z,16.02
2018-02-14T21:09:54.216Z,15.60
2018-02-14T21:12:22.684Z,14.30
2018-02-14T21:14:49.129Z,14.27
2018-02-14T21:17:15.613Z,16.00
2018-02-14T21:19:42.018Z,15.57
2018-02-14T21:22:08.462Z,15.13
2018-02-14T21:24:35.082Z,10.02
2018-02-14T21:27:02.408Z,15.00
2018-02-14T21:29:28.865Z,14.77
2018-02-14T21:31:55.343Z,14.43
2018-02-14T21:34:21.756Z,15.73
2018-02-14T21:36:48.186Z,15.27
2018-02-14T21:39:14.654Z,15.10
2018-02-14T21:41:41.139Z,17.10
2018-02-14T21:44:07.562Z,16.87
2018-02-14T21:46:34.090Z,15.07
2018-02-14T21:49:00.550Z,15.93
2018-02-14T21:51:26.974Z,16.77
2018-02-14T21:53:53.372Z,15.70
2018-02-14T21:56:20.532Z,16.55
2018-02-14T21:58:46.940Z,16.85
2018-02-14T22:01:13.370Z,15.57
2018-02-14T22:03:39.784Z,16.50
2018-02-14T22:06:06.227Z,18.00
2018-02-14T22:08:32.683Z,15.80
2018-02-14T22:10:59.869Z,17.62
2018-02-14T22:13:26.360Z,16.33
2018-02-14T22:15:52.871Z,16.77
2018-02-14T22:18:19.350Z,16.12
2018-02-14T22:20:45.780Z,15.93
2018-02-14T22:23:12.990Z,16.12
2018-02-14T22:25:39.416Z,16.35
2018-02-14T22:28:05.908Z,14.43
2018-02-14T22:30:33.046Z,12.27
2018-02-14T22:32:59.488Z,16.45
2018-02-14T22:35:26.660Z,17.67
2018-02-14T22:37:53.103Z,18.40
2018-02-14T22:40:19.521Z,15.35
2018-02-14T22:42:45.980Z,17.33
2018-02-14T22:45:12.371Z,17.65
2018-02-14T22:47:39.556Z,16.33
2018-02-14T22:50:05.981Z,18.10
2018-02-14T22:52:32.434Z,18.00
2018-02-14T22:54:58.836Z,17.60
2018-02-14T22:57:26.003Z,17.60
2018-02-14T22:59:52.421Z,17.70
2018-02-14T23:02:18.894Z,18.42
2018-02-14T23:04:45.288Z,17.87
2018-02-14T23:07:12.472Z,18.87
2018-02-14T23:09:38.899Z,17.80
2018-02-14T23:12:05.388Z,17.70
2018-02-14T23:14:31.828Z,18.73
2018-02-14T23:16:59.136Z,16.42
2018-02-14T23:19:25.618Z,20.08
2018-02-14T23:21:52.821Z,12.93
2018-02-14T23:24:19.311Z,18.58
2018-02-14T23:26:46.499Z,16.48
2018-02-14T23:29:12.987Z,18.12
2018-02-14T23:31:40.182Z,18.02
2018-02-14T23:34:06.634Z,17.40
2018-02-14T23:36:33.096Z,17.95
2018-02-14T23:39:00.309Z,19.87
2018-02-14T23:41:26.766Z,16.05
2018-02-14T23:43:53.193Z,18.77
2018-02-14T23:46:19.629Z,18.75
2018-02-14T23:48:46.055Z,20.25
2018-02-14T23:51:12.498Z,14.65
2018-02-14T23:53:38.922Z,24.17
2018-02-14T23:56:05.348Z,16.02
2018-02-14T23:58:31.796Z,18.77
